Time,TemperatureF,DewpointF,PressureIn,WindDirection,WindDirectionDegrees,WindSpeedMPH,WindSpeedGustMPH,Humidity,HourlyPrecipIn,Conditions,Clouds,dailyrainin,SoftwareType,DateUTC
2013-05-21 00:01:00,54.2,42.7,29.89,South,180,0.0,2.5,65,0.00,,,0.00,WUHU216HW,2013-05-21 07:01:00,
2013-05-21 00:06:00,54.0,42.8,29.89,WSW,248,1.1,2.2,66,0.00,,,0.00,WUHU216HW,2013-05-21 07:06:00,
2013-05-21 00:11:00,54.0,42.8,29.89,WSW,248,0.2,2.2,66,0.00,,,0.00,WUHU216HW,2013-05-21 07:11:00,
2013-05-21 00:16:00,53.8,43.1,29.89,SSW,203,0.4,2.0,67,0.00,,,0.00,WUHU216HW,2013-05-21 07:16:00,
2013-05-21 00:21:00,53.6,43.3,29.88,WSW,248,2.5,4.7,68,0.00,,,0.00,WUHU216HW,2013-05-21 07:21:00,
2013-05-21 00:26:00,53.5,43.1,29.88,WSW,248,0.9,4.7,68,0.00,,,0.00,WUHU216HW,2013-05-21 07:26:00,
2013-05-21 00:31:00,53.3,43.4,29.88,WSW,248,2.2,4.3,69,0.00,,,0.00,WUHU216HW,2013-05-21 07:31:00,
2013-05-21 00:36:00,52.9,43.0,29.88,SW,225,0.4,3.4,69,0.00,,,0.00,WUHU216HW,2013-05-21 07:36:00,
2013-05-21 00:41:00,52.7,43.3,29.88,SSW,203,0.4,2.9,70,0.00,,,0.00,WUHU216HW,2013-05-21 07:41:00,
2013-05-21 00:46:00,52.6,43.5,29.88,WSW,248,1.1,1.8,71,0.00,,,0.00,WUHU216HW,2013-05-21 07:46:00,
2013-05-21 00:51:00,52.4,43.3,29.88,SSW,203,0.4,3.6,71,0.00,,,0.00,WUHU216HW,2013-05-21 07:51:00,
2013-05-21 00:56:00,52.4,43.7,29.88,WSW,248,1.8,3.6,72,0.00,,,0.00,WUHU216HW,2013-05-21 07:56:00,
2013-05-21 01:01:00,52.2,43.5,29.88,SSW,203,1.6,2.5,72,0.00,,,0.00,WUHU216HW,2013-05-21 08:01:00,
2013-05-21 01:06:00,52.2,43.5,29.88,WNW,293,0.4,2.5,72,0.00,,,0.00,WUHU216HW,2013-05-21 08:06:00,
2013-05-21 01:11:00,52.2,43.5,29.89,SSW,203,0.7,2.7,72,0.00,,,0.00,WUHU216HW,2013-05-21 08:11:00,
2013-05-21 01:16:00,52.2,43.5,29.89,SW,225,0.9,2.7,72,0.00,,,0.00,WUHU216HW,2013-05-21 08:16:00,
2013-05-21 01:21:00,52.2,43.5,29.89,SW,225,1.3,2.7,72,0.00,,,0.00,WUHU216HW,2013-05-21 08:21:00,
2013-05-21 01:26:00,52.0,43.7,29.89,WSW,248,2.7,2.9,73,0.00,,,0.00,WUHU216HW,2013-05-21 08:26:00,
2013-05-21 01:31:00,51.8,43.5,29.88,SW,225,1.1,2.9,73,0.00,,,0.00,WUHU216HW,2013-05-21 08:31:00,
2013-05-21 01:36:00,51.8,43.5,29.88,SSW,203,0.9,3.4,73,0.00,,,0.00,WUHU216HW,2013-05-21 08:36:00,
2013-05-21 01:41:00,51.8,43.5,29.87,West,270,0.4,3.4,73,0.00,,,0.00,WUHU216HW,2013-05-21 08:41:00,
2013-05-21 01:46:00,51.8,43.5,29.88,SSW,203,1.6,3.4,73,0.00,,,0.00,WUHU216HW,2013-05-21 08:46:00,
2013-05-21 01:51:00,51.8,43.5,29.88,NW,315,0.9,4.7,73,0.00,,,0.00,WUHU216HW,2013-05-21 08:51:00,
2013-05-21 01:56:00,51.8,43.5,29.87,WSW,248,1.6,4.7,73,0.00,,,0.00,WUHU216HW,2013-05-21 08:56:00,
2013-05-21 02:01:00,51.8,43.5,29.87,West,270,0.2,4.3,73,0.00,,,0.00,WUHU216HW,2013-05-21 09:01:00,
2013-05-21 02:06:00,51.8,43.5,29.87,WSW,248,0.4,2.5,73,0.00,,,0.00,WUHU216HW,2013-05-21 09:06:00,
2013-05-21 02:11:00,51.8,43.8,29.87,NW,315,0.7,2.9,74,0.00,,,0.00,WUHU216HW,2013-05-21 09:11:00,
2013-05-21 02:16:00,51.5,43.1,29.88,NW,315,0.2,3.4,73,0.00,,,0.00,WUHU216HW,2013-05-21 09:16:00,
2013-05-21 02:21:00,51.5,43.5,29.88,SW,225,0.4,3.4,74,0.00,,,0.00,WUHU216HW,2013-05-21 09:21:00,
2013-05-21 02:26:00,51.1,43.5,29.88,NW,315,0.9,1.6,75,0.00,,,0.00,WUHU216HW,2013-05-21 09:26:00,
2013-05-21 02:31:00,50.9,43.7,29.89,West,270,0.2,1.6,76,0.00,,,0.00,WUHU216HW,2013-05-21 09:31:00,
2013-05-21 02:36:00,50.8,44.1,29.88,WSW,248,0.0,1.8,78,0.00,,,0.00,WUHU216HW,2013-05-21 09:36:00,
2013-05-21 02:41:00,50.4,45.1,29.88,WNW,293,2.5,2.5,82,0.00,,,0.00,WUHU216HW,2013-05-21 09:41:00,
2013-05-21 02:46:00,50.0,43.7,29.88,West,270,2.2,2.5,79,0.00,,,0.00,WUHU216HW,2013-05-21 09:46:00,
2013-05-21 02:51:00,49.9,43.9,29.88,NW,315,1.6,2.5,80,0.00,,,0.00,WUHU216HW,2013-05-21 09:51:00,
2013-05-21 02:56:00,49.7,43.7,29.88,SW,225,0.9,1.8,80,0.00,,,0.00,WUHU216HW,2013-05-21 09:56:00,
2013-05-21 03:01:00,49.5,43.6,29.88,NW,315,0.4,1.8,80,0.00,,,0.00,WUHU216HW,2013-05-21 10:01:00,
2013-05-21 03:06:00,49.5,43.6,29.88,NW,315,0.0,0.9,80,0.00,,,0.00,WUHU216HW,2013-05-21 10:06:00,
2013-05-21 03:11:00,49.5,43.8,29.88,SW,225,0.0,1.1,81,0.00,,,0.00,WUHU216HW,2013-05-21 10:11:00,
2013-05-21 03:16:00,49.5,44.5,29.87,NW,315,0.4,1.1,83,0.00,,,0.00,WUHU216HW,2013-05-21 10:16:00,
2013-05-21 03:21:00,49.3,44.0,29.87,WSW,248,0.4,0.4,82,0.00,,,0.00,WUHU216HW,2013-05-21 10:21:00,
2013-05-21 03:26:00,49.3,44.0,29.87,SW,225,0.2,0.9,82,0.00,,,0.00,WUHU216HW,2013-05-21 10:26:00,
2013-05-21 03:31:00,49.1,43.5,29.87,SSW,203,0.4,0.9,81,0.00,,,0.00,WUHU216HW,2013-05-21 10:31:00,
2013-05-21 03:36:00,49.0,43.4,29.87,WSW,248,0.0,0.7,81,0.00,,,0.00,WUHU216HW,2013-05-21 10:36:00,
2013-05-21 03:41:00,49.0,43.7,29.87,SW,225,0.4,0.7,82,0.00,,,0.00,WUHU216HW,2013-05-21 10:41:00,
2013-05-21 03:46:00,49.0,43.7,29.87,West,270,0.2,0.4,82,0.00,,,0.00,WUHU216HW,2013-05-21 10:46:00,
2013-05-21 03:51:00,49.0,43.7,29.87,West,270,0.4,0.7,82,0.00,,,0.00,WUHU216HW,2013-05-21 10:51:00,
2013-05-21 03:56:00,48.8,43.5,29.87,WSW,248,0.4,0.7,82,0.00,,,0.00,WUHU216HW,2013-05-21 10:56:00,
2013-05-21 04:01:00,48.8,43.5,29.87,SW,225,0.2,1.1,82,0.00,,,0.00,WUHU216HW,2013-05-21 11:01:00,
2013-05-21 04:06:00,48.8,43.8,29.87,SW,225,0.9,1.1,83,0.00,,,0.00,WUHU216HW,2013-05-21 11:06:00,
2013-05-21 04:11:00,48.6,43.7,29.87,WSW,248,0.4,1.1,83,0.00,,,0.00,WUHU216HW,2013-05-21 11:11:00,
2013-05-21 04:16:00,48.6,43.7,29.86,SW,225,0.2,1.1,83,0.00,,,0.00,WUHU216HW,2013-05-21 11:16:00,
2013-05-21 04:21:00,48.6,43.9,29.87,South,180,0.7,1.1,84,0.00,,,0.00,WUHU216HW,2013-05-21 11:21:00,
2013-05-21 04:26:00,48.6,43.9,29.87,SSE,158,0.0,1.1,84,0.00,,,0.00,WUHU216HW,2013-05-21 11:26:00,
2013-05-21 04:31:00,48.4,43.5,29.87,SW,225,0.2,1.1,83,0.00,,,0.00,WUHU216HW,2013-05-21 11:31:00,
2013-05-21 04:36:00,48.4,43.5,29.86,SE,135,0.2,1.3,83,0.00,,,0.00,WUHU216HW,2013-05-21 11:36:00,
2013-05-21 04:41:00,48.2,43.3,29.86,SSE,158,0.4,1.3,83,0.00,,,0.00,WUHU216HW,2013-05-21 11:41:00,
2013-05-21 04:46:00,48.2,43.3,29.86,South,180,0.2,0.4,83,0.00,,,0.00,WUHU216HW,2013-05-21 11:46:00,
2013-05-21 04:51:00,48.1,43.5,29.86,SE,135,0.2,0.7,84,0.00,,,0.00,WUHU216HW,2013-05-21 11:51:00,
2013-05-21 04:56:00,48.1,43.5,29.86,SE,135,0.4,1.1,84,0.00,,,0.00,WUHU216HW,2013-05-21 11:56:00,
2013-05-21 05:01:00,48.1,43.5,29.86,SE,135,0.0,1.1,84,0.00,,,0.00,WUHU216HW,2013-05-21 12:01:00,
2013-05-21 05:06:00,48.1,43.5,29.85,SSW,203,0.0,1.1,84,0.00,,,0.00,WUHU216HW,2013-05-21 12:06:00,
2013-05-21 05:11:00,48.1,43.7,29.85,SW,225,0.7,1.1,85,0.00,,,0.00,WUHU216HW,2013-05-21 12:11:00,
2013-05-21 05:16:00,48.1,43.5,29.86,South,180,0.9,1.1,84,0.00,,,0.00,WUHU216HW,2013-05-21 12:16:00,
2013-05-21 05:21:00,47.9,43.6,29.86,SSE,158,0.4,1.1,85,0.00,,,0.00,WUHU216HW,2013-05-21 12:21:00,
2013-05-21 05:26:00,48.1,43.7,29.86,SSW,203,0.4,0.9,85,0.00,,,0.00,WUHU216HW,2013-05-21 12:26:00,
2013-05-21 05:31:00,48.1,44.1,29.85,SSW,203,0.0,0.9,86,0.00,,,0.00,WUHU216HW,2013-05-21 12:31:00,
2013-05-21 05:36:00,48.1,43.7,29.85,SW,225,0.0,0.9,85,0.00,,,0.00,WUHU216HW,2013-05-21 12:36:00,
2013-05-21 05:41:00,48.2,43.9,29.85,SSE,158,0.2,0.4,85,0.00,,,0.00,WUHU216HW,2013-05-21 12:41:00,
2013-05-21 05:46:00,48.2,44.6,29.84,SSE,158,0.0,0.4,87,0.00,,,0.00,WUHU216HW,2013-05-21 12:46:00,
2013-05-21 05:51:00,48.2,44.3,29.85,South,180,0.0,0.4,86,0.00,,,0.00,WUHU216HW,2013-05-21 12:51:00,
2013-05-21 05:56:00,48.2,44.3,29.85,SE,135,0.4,0.9,86,0.00,,,0.00,WUHU216HW,2013-05-21 12:56:00,
2013-05-21 06:01:00,48.2,44.3,29.85,SSE,158,0.4,1.8,86,0.00,,,0.00,WUHU216HW,2013-05-21 13:01:00,
2013-05-21 06:06:00,48.2,44.3,29.84,SSE,158,0.2,1.8,86,0.00,,,0.00,WUHU216HW,2013-05-21 13:06:00,
2013-05-21 06:11:00,48.2,44.3,29.84,SSE,158,2.0,2.0,86,0.00,,,0.00,WUHU216HW,2013-05-21 13:11:00,
2013-05-21 06:16:00,48.2,44.3,29.84,ESE,113,0.7,2.0,86,0.00,,,0.00,WUHU216HW,2013-05-21 13:16:00,
2013-05-21 06:21:00,48.2,44.3,29.85,SSE,158,0.4,1.8,86,0.00,,,0.00,WUHU216HW,2013-05-21 13:21:00,
2013-05-21 06:26:00,48.2,44.3,29.85,SSW,203,0.7,0.9,86,0.00,,,0.00,WUHU216HW,2013-05-21 13:26:00,
2013-05-21 06:31:00,48.2,44.3,29.84,SSE,158,0.2,0.9,86,0.00,,,0.00,WUHU216HW,2013-05-21 13:31:00,
2013-05-21 06:36:00,48.2,44.3,29.84,SSE,158,0.0,0.7,86,0.00,,,0.00,WUHU216HW,2013-05-21 13:36:00,
2013-05-21 06:41:00,48.4,44.4,29.83,SSE,158,0.4,0.7,86,0.00,,,0.00,WUHU216HW,2013-05-21 13:41:00,
2013-05-21 06:46:00,48.6,44.6,29.83,SE,135,0.0,0.7,86,0.00,,,0.00,WUHU216HW,2013-05-21 13:46:00,
2013-05-21 06:51:00,48.8,45.1,29.84,South,180,0.2,0.4,87,0.00,,,0.00,WUHU216HW,2013-05-21 13:51:00,
2013-05-21 06:56:00,49.3,45.5,29.84,SSE,158,0.9,1.1,87,0.00,,,0.00,WUHU216HW,2013-05-21 13:56:00,
2013-05-21 07:01:00,49.7,45.9,29.84,SSE,158,1.6,1.8,87,0.00,,,0.00,WUHU216HW,2013-05-21 14:01:00,
2013-05-21 07:06:00,50.0,45.9,29.83,SSE,158,0.4,2.5,86,0.00,,,0.00,WUHU216HW,2013-05-21 14:06:00,
2013-05-21 07:11:00,50.2,46.1,29.83,SSE,158,0.0,2.5,86,0.00,,,0.00,WUHU216HW,2013-05-21 14:11:00,
2013-05-21 07:16:00,50.8,46.6,29.83,SW,225,0.4,1.1,86,0.00,,,0.00,WUHU216HW,2013-05-21 14:16:00,
2013-05-21 07:21:00,50.8,46.6,29.83,SE,135,1.1,2.0,86,0.00,,,0.00,WUHU216HW,2013-05-21 14:21:00,
2013-05-21 07:26:00,50.6,46.4,29.83,SSE,158,0.2,2.0,86,0.00,,,0.00,WUHU216HW,2013-05-21 14:26:00,
2013-05-21 07:31:00,50.8,46.6,29.83,SSW,203,0.2,1.8,86,0.00,,,0.00,WUHU216HW,2013-05-21 14:31:00,
2013-05-21 07:36:00,51.3,47.2,29.84,WSW,248,1.1,1.3,86,0.00,,,0.00,WUHU216HW,2013-05-21 14:36:00,
2013-05-21 07:41:00,51.5,47.1,29.84,SSW,203,0.7,1.6,85,0.00,,,0.00,WUHU216HW,2013-05-21 14:41:00,
2013-05-21 07:46:00,51.7,47.0,29.84,South,180,1.1,1.6,84,0.00,,,0.00,WUHU216HW,2013-05-21 14:46:00,
2013-05-21 07:51:00,51.5,46.8,29.84,South,180,0.4,1.3,84,0.00,,,0.00,WUHU216HW,2013-05-21 14:51:00,
2013-05-21 07:56:00,51.1,46.5,29.84,SE,135,1.1,1.8,84,0.00,,,0.00,WUHU216HW,2013-05-21 14:56:00,
2013-05-21 08:01:00,50.8,46.1,29.84,SSW,203,0.0,1.8,84,0.00,,,0.00,WUHU216HW,2013-05-21 15:01:00,
2013-05-21 08:06:00,50.0,45.6,29.85,SSW,203,2.2,2.2,85,0.00,,,0.00,WUHU216HW,2013-05-21 15:06:00,
2013-05-21 08:11:00,49.7,45.6,29.84,South,180,1.1,2.5,86,0.00,,,0.00,WUHU216HW,2013-05-21 15:11:00,
2013-05-21 08:16:00,49.3,44.9,29.84,SW,225,0.4,2.5,85,0.00,,,0.00,WUHU216HW,2013-05-21 15:16:00,
2013-05-21 08:21:00,49.3,45.3,29.84,SW,225,0.7,2.5,86,0.00,,,0.00,WUHU216HW,2013-05-21 15:21:00,
2013-05-21 08:26:00,49.3,45.3,29.84,SSE,158,0.0,3.4,86,0.00,,,0.00,WUHU216HW,2013-05-21 15:26:00,
2013-05-21 08:31:00,49.3,45.3,29.84,SSW,203,0.2,3.4,86,0.00,,,0.00,WUHU216HW,2013-05-21 15:31:00,
2013-05-21 08:36:00,49.5,45.7,29.84,WSW,248,0.7,1.1,87,0.00,,,0.00,WUHU216HW,2013-05-21 15:36:00,
2013-05-21 08:41:00,49.9,46.1,29.84,SW,225,1.1,1.1,87,0.00,,,0.00,WUHU216HW,2013-05-21 15:41:00,
2013-05-21 08:46:00,50.0,46.3,29.84,NNW,338,0.4,1.1,87,0.00,,,0.00,WUHU216HW,2013-05-21 15:46:00,
2013-05-21 08:51:00,50.2,46.5,29.84,WSW,248,0.0,1.1,87,0.00,,,0.00,WUHU216HW,2013-05-21 15:51:00,
2013-05-21 08:56:00,50.2,46.5,29.84,WSW,248,0.2,1.1,87,0.00,,,0.00,WUHU216HW,2013-05-21 15:56:00,
2013-05-21 09:01:00,50.2,46.5,29.84,SW,225,0.4,0.4,87,0.00,,,0.00,WUHU216HW,2013-05-21 16:01:00,
2013-05-21 09:06:00,50.2,46.5,29.84,West,270,0.4,0.4,87,0.00,,,0.00,WUHU216HW,2013-05-21 16:06:00,
2013-05-21 09:11:00,50.2,46.5,29.84,WSW,248,0.0,0.4,87,0.00,,,0.00,WUHU216HW,2013-05-21 16:11:00,
2013-05-21 09:16:00,50.6,47.1,29.83,NNW,338,0.0,0.4,88,0.00,,,0.00,WUHU216HW,2013-05-21 16:16:00,
2013-05-21 09:21:00,50.8,47.0,29.83,WNW,293,0.4,0.7,87,0.00,,,0.00,WUHU216HW,2013-05-21 16:21:00,
2013-05-21 09:26:00,50.9,47.8,29.83,NNE,23,0.0,0.7,89,0.00,,,0.00,WUHU216HW,2013-05-21 16:26:00,
2013-05-21 09:31:00,51.3,47.8,29.83,WSW,248,1.1,1.8,88,0.00,,,0.00,WUHU216HW,2013-05-21 16:31:00,
2013-05-21 09:36:00,51.3,47.5,29.83,WSW,248,2.0,2.2,87,0.00,,,0.00,WUHU216HW,2013-05-21 16:36:00,
2013-05-21 09:41:00,51.5,47.7,29.83,NNW,338,0.4,2.2,87,0.00,,,0.00,WUHU216HW,2013-05-21 16:41:00,
2013-05-21 09:46:00,51.7,48.2,29.83,NNE,23,0.4,2.0,88,0.00,,,0.00,WUHU216HW,2013-05-21 16:46:00,
2013-05-21 09:51:00,52.0,48.3,29.83,SW,225,1.8,2.2,87,0.00,,,0.00,WUHU216HW,2013-05-21 16:51:00,
2013-05-21 09:56:00,52.4,48.2,29.83,WSW,248,0.0,2.2,86,0.00,,,0.00,WUHU216HW,2013-05-21 16:56:00,
2013-05-21 10:01:00,52.7,49.2,29.82,NW,315,0.4,2.2,88,0.00,,,0.00,WUHU216HW,2013-05-21 17:01:00,
2013-05-21 10:06:00,52.7,49.0,29.82,WNW,293,0.4,1.3,87,0.00,,,0.00,WUHU216HW,2013-05-21 17:06:00,
2013-05-21 10:11:00,52.7,48.6,29.82,NNW,338,0.4,2.7,86,0.00,,,0.00,WUHU216HW,2013-05-21 17:11:00,
2013-05-21 10:16:00,52.9,48.5,29.82,SSW,203,1.8,2.7,85,0.00,,,0.00,WUHU216HW,2013-05-21 17:16:00,
2013-05-21 10:21:00,52.9,48.5,29.82,NNW,338,0.0,2.5,85,0.00,,,0.00,WUHU216HW,2013-05-21 17:21:00,
2013-05-21 10:26:00,53.3,48.6,29.82,WSW,248,0.7,2.5,84,0.00,,,0.00,WUHU216HW,2013-05-21 17:26:00,
2013-05-21 10:31:00,53.3,48.2,29.82,SSW,203,0.0,1.8,83,0.00,,,0.00,WUHU216HW,2013-05-21 17:31:00,
2013-05-21 10:36:00,53.5,48.4,29.82,SW,225,0.9,1.8,83,0.00,,,0.00,WUHU216HW,2013-05-21 17:36:00,
2013-05-21 10:41:00,53.6,48.3,29.82,WSW,248,0.2,1.6,82,0.00,,,0.00,WUHU216HW,2013-05-21 17:41:00,
2013-05-21 10:46:00,53.6,48.3,29.81,WSW,248,0.2,1.6,82,0.00,,,0.00,WUHU216HW,2013-05-21 17:46:00,
2013-05-21 10:51:00,53.8,48.5,29.81,WNW,293,0.2,1.3,82,0.00,,,0.00,WUHU216HW,2013-05-21 17:51:00,
2013-05-21 10:56:00,53.8,48.5,29.82,West,270,0.7,1.3,82,0.00,,,0.00,WUHU216HW,2013-05-21 17:56:00,
2013-05-21 11:01:00,54.0,48.6,29.82,SW,225,1.1,1.8,82,0.00,,,0.00,WUHU216HW,2013-05-21 18:01:00,
2013-05-21 11:06:00,54.0,48.6,29.81,SSW,203,0.0,1.8,82,0.00,,,0.00,WUHU216HW,2013-05-21 18:06:00,
2013-05-21 11:11:00,54.0,48.3,29.81,SSW,203,0.4,1.8,81,0.00,,,0.00,WUHU216HW,2013-05-21 18:11:00,
2013-05-21 11:16:00,53.8,48.5,29.81,SSW,203,0.2,1.8,82,0.00,,,0.00,WUHU216HW,2013-05-21 18:16:00,
2013-05-21 11:21:00,53.5,48.2,29.81,NE,45,0.2,1.8,82,0.00,,,0.00,WUHU216HW,2013-05-21 18:21:00,
2013-05-21 11:26:00,53.3,48.0,29.81,West,270,1.8,1.8,82,0.00,,,0.00,WUHU216HW,2013-05-21 18:26:00,
2013-05-21 11:31:00,52.9,48.3,29.81,North,0,0.2,1.8,84,0.00,,,0.00,WUHU216HW,2013-05-21 18:31:00,
2013-05-21 11:36:00,52.9,48.5,29.81,West,270,0.0,1.8,85,0.00,,,0.00,WUHU216HW,2013-05-21 18:36:00,
2013-05-21 11:41:00,52.9,48.3,29.81,SE,135,0.4,1.3,84,0.00,,,0.00,WUHU216HW,2013-05-21 18:41:00,
2013-05-21 11:46:00,53.1,48.4,29.81,NW,315,0.2,1.3,84,0.00,,,0.00,WUHU216HW,2013-05-21 18:46:00,
2013-05-21 11:51:00,53.3,48.6,29.81,WSW,248,0.2,1.1,84,0.00,,,0.00,WUHU216HW,2013-05-21 18:51:00,
2013-05-21 11:56:00,53.5,48.8,29.81,WSW,248,0.9,1.6,84,0.00,,,0.00,WUHU216HW,2013-05-21 18:56:00,
2013-05-21 12:01:00,53.6,48.6,29.81,SW,225,0.4,3.6,83,0.00,,,0.00,WUHU216HW,2013-05-21 19:01:00,
2013-05-21 12:06:00,53.6,48.6,29.81,WSW,248,0.4,3.6,83,0.00,,,0.00,WUHU216HW,2013-05-21 19:06:00,
2013-05-21 12:11:00,54.0,49.2,29.81,SSW,203,0.4,2.5,84,0.00,,,0.00,WUHU216HW,2013-05-21 19:11:00,
2013-05-21 12:16:00,54.2,49.2,29.81,NW,315,1.8,3.4,83,0.00,,,0.00,WUHU216HW,2013-05-21 19:16:00,
2013-05-21 12:21:00,54.5,49.1,29.81,SSW,203,2.5,3.4,82,0.00,,,0.00,WUHU216HW,2013-05-21 19:21:00,
2013-05-21 12:26:00,54.5,49.1,29.81,WNW,293,1.8,3.6,82,0.00,,,0.00,WUHU216HW,2013-05-21 19:26:00,
2013-05-21 12:31:00,54.5,49.1,29.81,WSW,248,1.8,3.6,82,0.00,,,0.00,WUHU216HW,2013-05-21 19:31:00,
2013-05-21 12:36:00,54.2,48.8,29.81,WSW,248,1.1,6.3,82,0.00,,,0.00,WUHU216HW,2013-05-21 19:36:00,
2013-05-21 12:41:00,54.4,49.0,29.81,WSW,248,2.2,6.3,82,0.00,,,0.00,WUHU216HW,2013-05-21 19:41:00,
2013-05-21 12:47:00,53.8,48.5,29.82,SW,225,0.4,5.6,82,0.00,,,0.00,WUHU216HW,2013-05-21 19:47:00,
2013-05-21 12:52:00,53.8,48.8,29.81,WSW,248,0.7,5.6,83,0.00,,,0.00,WUHU216HW,2013-05-21 19:52:00,
2013-05-21 12:57:00,54.0,49.0,29.82,SW,225,1.8,4.3,83,0.00,,,0.00,WUHU216HW,2013-05-21 19:57:00,
2013-05-21 13:02:00,53.6,48.3,29.82,SW,225,1.6,4.7,82,0.00,,,0.00,WUHU216HW,2013-05-21 20:02:00,
2013-05-21 13:07:00,53.3,48.2,29.82,WSW,248,2.5,6.3,83,0.00,,,0.00,WUHU216HW,2013-05-21 20:07:00,
2013-05-21 13:12:00,52.9,48.3,29.82,SW,225,4.7,6.3,84,0.00,,,0.00,WUHU216HW,2013-05-21 20:12:00,
2013-05-21 13:17:00,52.7,47.7,29.83,SW,225,0.9,5.1,83,0.00,,,0.00,WUHU216HW,2013-05-21 20:17:00,
2013-05-21 13:22:00,52.6,47.5,29.83,SW,225,1.6,5.6,83,0.00,,,0.00,WUHU216HW,2013-05-21 20:22:00,
2013-05-21 13:27:00,52.4,47.7,29.83,NW,315,0.9,5.6,84,0.00,,,0.00,WUHU216HW,2013-05-21 20:27:00,
2013-05-21 13:32:00,52.2,47.5,29.84,South,180,2.5,3.4,84,0.00,,,0.00,WUHU216HW,2013-05-21 20:32:00,
2013-05-21 13:37:00,52.0,47.4,29.85,SW,225,1.8,3.4,84,0.00,,,0.00,WUHU216HW,2013-05-21 20:37:00,
2013-05-21 13:42:00,51.5,46.4,29.85,WNW,293,1.8,4.7,83,0.00,,,0.00,WUHU216HW,2013-05-21 20:42:00,
2013-05-21 13:47:00,50.9,45.9,29.86,WSW,248,0.4,4.7,83,0.00,,,0.00,WUHU216HW,2013-05-21 20:47:00,
2013-05-21 13:52:00,50.8,45.7,29.86,SW,225,1.1,4.0,83,0.00,,,0.00,WUHU216HW,2013-05-21 20:52:00,
2013-05-21 13:57:00,50.9,45.9,29.86,West,270,2.2,4.0,83,0.00,,,0.00,WUHU216HW,2013-05-21 20:57:00,
2013-05-21 14:02:00,50.8,45.5,29.86,WSW,248,1.8,4.0,82,0.00,,,0.00,WUHU216HW,2013-05-21 21:02:00,
2013-05-21 14:07:00,50.6,45.3,29.87,WSW,248,1.3,4.0,82,0.00,,,0.00,WUHU216HW,2013-05-21 21:07:00,
2013-05-21 14:12:00,50.4,45.4,29.87,West,270,1.1,4.3,83,0.00,,,0.00,WUHU216HW,2013-05-21 21:12:00,
2013-05-21 14:17:00,50.0,44.7,29.88,SW,225,0.9,4.7,82,0.00,,,0.00,WUHU216HW,2013-05-21 21:17:00,
2013-05-21 14:22:00,50.4,45.4,29.88,WSW,248,4.3,4.7,83,0.00,,,0.00,WUHU216HW,2013-05-21 21:22:00,
2013-05-21 14:27:00,50.4,45.1,29.88,West,270,2.0,4.3,82,0.00,,,0.00,WUHU216HW,2013-05-21 21:27:00,
2013-05-21 14:32:00,50.2,44.9,29.88,SSW,203,1.8,4.3,82,0.00,,,0.00,WUHU216HW,2013-05-21 21:32:00,
2013-05-21 14:37:00,50.0,44.7,29.89,WSW,248,1.3,4.0,82,0.00,,,0.00,WUHU216HW,2013-05-21 21:37:00,
2013-05-21 14:42:00,50.0,45.0,29.89,SSE,158,2.7,5.8,83,0.00,,,0.00,WUHU216HW,2013-05-21 21:42:00,
2013-05-21 14:47:00,50.0,44.7,29.89,SW,225,1.8,5.8,82,0.00,,,0.00,WUHU216HW,2013-05-21 21:47:00,
2013-05-21 14:52:00,50.0,44.7,29.89,South,180,1.8,4.3,82,0.00,,,0.00,WUHU216HW,2013-05-21 21:52:00,
2013-05-21 14:57:00,49.7,44.6,29.90,SW,225,2.7,5.1,83,0.00,,,0.00,WUHU216HW,2013-05-21 21:57:00,
2013-05-21 15:02:00,50.0,44.7,29.91,WSW,248,5.8,5.8,82,0.00,,,0.00,WUHU216HW,2013-05-21 22:02:00,
2013-05-21 15:07:00,49.9,44.6,29.91,North,0,2.9,5.8,82,0.00,,,0.00,WUHU216HW,2013-05-21 22:07:00,
2013-05-21 15:12:00,49.9,44.6,29.91,SW,225,1.8,6.9,82,0.00,,,0.00,WUHU216HW,2013-05-21 22:12:00,
2013-05-21 15:17:00,49.7,44.4,29.91,WSW,248,1.3,6.9,82,0.00,,,0.00,WUHU216HW,2013-05-21 22:17:00,
2013-05-21 15:22:00,49.7,44.4,29.91,WSW,248,2.5,5.4,82,0.00,,,0.00,WUHU216HW,2013-05-21 22:22:00,
2013-05-21 15:27:00,49.3,44.0,29.92,SSW,203,1.6,5.4,82,0.00,,,0.00,WUHU216HW,2013-05-21 22:27:00,
2013-05-21 15:32:00,49.1,44.1,29.92,SSW,203,1.6,4.5,83,0.00,,,0.00,WUHU216HW,2013-05-21 22:32:00,
2013-05-21 15:37:00,49.0,44.0,29.92,SSW,203,6.3,6.3,83,0.00,,,0.00,WUHU216HW,2013-05-21 22:37:00,
2013-05-21 15:42:00,49.0,44.0,29.92,SSW,203,1.1,6.3,83,0.00,,,0.00,WUHU216HW,2013-05-21 22:42:00,
2013-05-21 15:47:00,48.8,43.8,29.93,SW,225,5.1,5.4,83,0.00,,,0.00,WUHU216HW,2013-05-21 22:47:00,
2013-05-21 15:52:00,48.6,43.7,29.93,SW,225,2.2,5.4,83,0.00,,,0.00,WUHU216HW,2013-05-21 22:52:00,
2013-05-21 15:57:00,48.6,43.7,29.93,SE,135,4.5,5.4,83,0.00,,,0.00,WUHU216HW,2013-05-21 22:57:00,
2013-05-21 16:02:00,48.6,43.7,29.93,WSW,248,4.3,4.7,83,0.00,,,0.00,WUHU216HW,2013-05-21 23:02:00,
2013-05-21 16:07:00,48.6,43.7,29.94,WSW,248,4.0,4.7,83,0.00,,,0.00,WUHU216HW,2013-05-21 23:07:00,
2013-05-21 16:12:00,48.6,43.7,29.94,SW,225,3.8,4.7,83,0.00,,,0.00,WUHU216HW,2013-05-21 23:12:00,
2013-05-21 16:17:00,48.2,42.9,29.94,WSW,248,3.8,4.7,82,0.00,,,0.00,WUHU216HW,2013-05-21 23:17:00,
2013-05-21 16:22:00,48.2,42.9,29.94,WSW,248,6.7,6.7,82,0.00,,,0.00,WUHU216HW,2013-05-21 23:22:00,
2013-05-21 16:27:00,48.1,42.8,29.94,WSW,248,2.7,6.7,82,0.00,,,0.00,WUHU216HW,2013-05-21 23:27:00,
2013-05-21 16:32:00,48.6,43.7,29.94,SSW,203,0.9,6.5,83,0.00,,,0.00,WUHU216HW,2013-05-21 23:32:00,
2013-05-21 16:37:00,49.3,44.3,29.94,WSW,248,5.8,6.5,83,0.00,,,0.00,WUHU216HW,2013-05-21 23:37:00,
2013-05-21 16:42:00,49.3,44.0,29.94,WSW,248,1.8,5.8,82,0.00,,,0.00,WUHU216HW,2013-05-21 23:42:00,
2013-05-21 16:47:00,49.3,44.0,29.95,SW,225,2.5,5.8,82,0.00,,,0.00,WUHU216HW,2013-05-21 23:47:00,
2013-05-21 16:52:00,49.3,44.0,29.95,SW,225,1.6,5.4,82,0.00,,,0.00,WUHU216HW,2013-05-21 23:52:00,
2013-05-21 16:57:00,49.3,43.7,29.95,WSW,248,2.2,6.3,81,0.00,,,0.00,WUHU216HW,2013-05-21 23:57:00,
2013-05-21 17:02:00,49.3,44.0,29.95,WNW,293,2.5,6.3,82,0.00,,,0.00,WUHU216HW,2013-05-22 00:02:00,
2013-05-21 17:07:00,49.5,44.2,29.95,SW,225,2.5,3.4,82,0.00,,,0.00,WUHU216HW,2013-05-22 00:07:00,
2013-05-21 17:12:00,49.5,43.8,29.95,WSW,248,3.4,5.8,81,0.00,,,0.00,WUHU216HW,2013-05-22 00:12:00,
2013-05-21 17:17:00,49.3,43.7,29.95,WSW,248,4.0,5.8,81,0.00,,,0.00,WUHU216HW,2013-05-22 00:17:00,
2013-05-21 17:22:00,49.3,43.7,29.94,WSW,248,2.5,4.9,81,0.00,,,0.00,WUHU216HW,2013-05-22 00:22:00,
2013-05-21 17:27:00,49.1,43.5,29.94,WSW,248,2.2,4.9,81,0.00,,,0.00,WUHU216HW,2013-05-22 00:27:00,
2013-05-21 17:32:00,49.0,43.7,29.95,WNW,293,1.3,4.7,82,0.00,,,0.00,WUHU216HW,2013-05-22 00:32:00,
2013-05-21 17:37:00,49.0,43.4,29.95,SW,225,1.6,6.3,81,0.00,,,0.00,WUHU216HW,2013-05-22 00:37:00,
2013-05-21 18:11:00,48.6,43.0,29.94,SW,225,0.2,0.2,81,0.00,,,0.00,WUHU216HW,2013-05-22 01:11:00,
2013-05-21 18:16:00,48.2,42.7,29.94,SW,225,0.7,0.7,81,0.00,,,0.00,WUHU216HW,2013-05-22 01:16:00,
2013-05-21 18:21:00,48.6,43.3,29.95,SSW,203,2.2,2.9,82,0.00,,,0.00,WUHU216HW,2013-05-22 01:21:00,
2013-05-21 18:26:00,48.6,43.3,29.96,SW,225,0.4,2.9,82,0.00,,,0.00,WUHU216HW,2013-05-22 01:26:00,
2013-05-21 18:31:00,48.6,43.3,29.95,SW,225,2.2,5.1,82,0.00,,,0.00,WUHU216HW,2013-05-22 01:31:00,
2013-05-21 18:36:00,49.0,43.4,29.95,WSW,248,1.8,5.1,81,0.00,,,0.00,WUHU216HW,2013-05-22 01:36:00,
2013-05-21 18:41:00,49.3,43.7,29.95,SSW,203,3.4,3.4,81,0.00,,,0.00,WUHU216HW,2013-05-22 01:41:00,
2013-05-21 18:46:00,49.3,43.4,29.95,WSW,248,2.9,5.4,80,0.00,,,0.00,WUHU216HW,2013-05-22 01:46:00,
2013-05-21 18:51:00,49.3,43.4,29.96,WSW,248,3.4,5.4,80,0.00,,,0.00,WUHU216HW,2013-05-22 01:51:00,
2013-05-21 18:56:00,49.5,43.6,29.96,SW,225,1.3,4.7,80,0.00,,,0.00,WUHU216HW,2013-05-22 01:56:00,
2013-05-21 19:01:00,49.5,43.6,29.96,SSW,203,2.5,4.7,80,0.00,,,0.00,WUHU216HW,2013-05-22 02:01:00,
2013-05-21 19:06:00,49.3,43.0,29.96,WSW,248,1.8,3.8,79,0.00,,,0.00,WUHU216HW,2013-05-22 02:06:00,
2013-05-21 19:11:00,49.3,43.0,29.97,WSW,248,0.2,3.8,79,0.00,,,0.00,WUHU216HW,2013-05-22 02:11:00,
2013-05-21 19:16:00,49.1,43.2,29.97,SSE,158,0.4,2.5,80,0.00,,,0.00,WUHU216HW,2013-05-22 02:16:00,
2013-05-21 19:21:00,49.0,43.0,29.97,SE,135,0.4,2.0,80,0.00,,,0.00,WUHU216HW,2013-05-22 02:21:00,
2013-05-21 19:26:00,49.0,42.7,29.97,SW,225,1.6,4.0,79,0.00,,,0.00,WUHU216HW,2013-05-22 02:26:00,
2013-05-21 19:31:00,48.6,42.7,29.97,South,180,0.7,4.0,80,0.00,,,0.00,WUHU216HW,2013-05-22 02:31:00,
2013-05-21 19:36:00,48.6,42.7,29.97,SSW,203,1.3,3.4,80,0.00,,,0.00,WUHU216HW,2013-05-22 02:36:00,
2013-05-21 19:41:00,48.4,42.5,29.97,SW,225,2.0,3.4,80,0.00,,,0.00,WUHU216HW,2013-05-22 02:41:00,
2013-05-21 19:46:00,48.1,42.1,29.97,South,180,2.2,3.6,80,0.00,,,0.00,WUHU216HW,2013-05-22 02:46:00,
2013-05-21 19:51:00,47.9,41.9,29.97,SSE,158,0.4,3.6,80,0.00,,,0.00,WUHU216HW,2013-05-22 02:51:00,
2013-05-21 19:56:00,47.9,41.9,29.96,SW,225,1.1,2.5,80,0.00,,,0.00,WUHU216HW,2013-05-22 02:56:00,
2013-05-21 20:01:00,47.7,41.9,29.96,SSW,203,0.7,1.6,80,0.00,,,0.00,WUHU216HW,2013-05-22 03:01:00,
2013-05-21 20:06:00,47.5,41.7,29.96,SSW,203,0.7,1.6,80,0.00,,,0.00,WUHU216HW,2013-05-22 03:06:00,
2013-05-21 20:11:00,47.5,41.7,29.97,South,180,1.3,2.0,80,0.00,,,0.00,WUHU216HW,2013-05-22 03:11:00,
2013-05-21 20:16:00,47.3,41.5,29.97,SW,225,0.4,2.9,80,0.00,,,0.00,WUHU216HW,2013-05-22 03:16:00,
2013-05-21 20:21:00,47.2,41.3,29.97,SW,225,1.1,2.9,80,0.00,,,0.00,WUHU216HW,2013-05-22 03:21:00,
2013-05-21 20:26:00,47.0,41.1,29.96,SE,135,1.8,2.5,80,0.00,,,0.00,WUHU216HW,2013-05-22 03:26:00,
2013-05-21 20:31:00,47.0,41.1,29.96,SW,225,1.3,2.7,80,0.00,,,0.00,WUHU216HW,2013-05-22 03:31:00,
2013-05-21 20:36:00,46.8,41.1,29.96,SSW,203,1.1,2.9,80,0.00,,,0.00,WUHU216HW,2013-05-22 03:36:00,
2013-05-21 20:41:00,46.6,41.1,29.96,SSE,158,1.1,4.3,81,0.00,,,0.00,WUHU216HW,2013-05-22 03:41:00,
2013-05-21 20:46:00,46.4,41.0,29.96,WSW,248,1.6,4.3,81,0.00,,,0.00,WUHU216HW,2013-05-22 03:46:00,
2013-05-21 20:51:00,46.4,41.0,29.96,SSE,158,2.5,4.7,81,0.00,,,0.00,WUHU216HW,2013-05-22 03:51:00,
2013-05-21 20:56:00,46.4,41.0,29.96,SW,225,1.1,4.7,81,0.00,,,0.00,WUHU216HW,2013-05-22 03:56:00,
2013-05-21 21:01:00,46.4,41.0,29.96,SW,225,1.1,3.1,81,0.00,,,0.00,WUHU216HW,2013-05-22 04:01:00,
2013-05-21 21:06:00,46.6,40.9,29.96,WSW,248,0.7,2.2,80,0.00,,,0.00,WUHU216HW,2013-05-22 04:06:00,
2013-05-21 21:11:00,46.6,40.9,29.96,SW,225,0.0,2.2,80,0.00,,,0.00,WUHU216HW,2013-05-22 04:11:00,
2013-05-21 21:16:00,46.6,40.9,29.97,SW,225,0.0,1.6,80,0.00,,,0.00,WUHU216HW,2013-05-22 04:16:00,
2013-05-21 21:21:00,46.4,40.7,29.96,SSE,158,0.0,1.1,80,0.00,,,0.00,WUHU216HW,2013-05-22 04:21:00,
2013-05-21 21:26:00,46.4,40.7,29.97,South,180,1.3,1.3,80,0.00,,,0.00,WUHU216HW,2013-05-22 04:26:00,
2013-05-21 21:31:00,46.4,40.7,29.97,SSW,203,1.1,1.3,80,0.00,,,0.00,WUHU216HW,2013-05-22 04:31:00,
2013-05-21 21:36:00,46.1,40.3,29.97,ESE,113,2.2,2.2,80,0.00,,,0.00,WUHU216HW,2013-05-22 04:36:00,
2013-05-21 21:41:00,45.9,40.1,29.97,SSE,158,2.5,2.5,80,0.00,,,0.00,WUHU216HW,2013-05-22 04:41:00,
2013-05-21 21:46:00,45.5,39.8,29.98,ESE,113,1.3,2.5,80,0.00,,,0.00,WUHU216HW,2013-05-22 04:46:00,
2013-05-21 21:51:00,45.4,39.6,29.98,SSW,203,0.7,2.5,80,0.00,,,0.00,WUHU216HW,2013-05-22 04:51:00,
2013-05-21 21:56:00,45.4,39.9,29.98,South,180,1.1,1.6,81,0.00,,,0.00,WUHU216HW,2013-05-22 04:56:00,
2013-05-21 22:01:00,45.4,39.9,29.97,SSE,158,2.0,2.9,81,0.00,,,0.00,WUHU216HW,2013-05-22 05:01:00,
2013-05-21 22:06:00,45.0,39.5,29.98,West,270,0.4,2.9,81,0.00,,,0.00,WUHU216HW,2013-05-22 05:06:00,
2013-05-21 22:11:00,44.8,39.3,29.98,SSW,203,0.4,2.0,81,0.00,,,0.00,WUHU216HW,2013-05-22 05:11:00,
2013-05-21 22:16:00,44.6,39.2,29.98,SW,225,0.4,1.8,81,0.00,,,0.00,WUHU216HW,2013-05-22 05:16:00,
2013-05-21 22:21:00,44.6,39.2,29.98,SSW,203,0.2,1.8,81,0.00,,,0.00,WUHU216HW,2013-05-22 05:21:00,
2013-05-21 22:26:00,44.5,39.0,29.97,WSW,248,1.1,1.8,81,0.00,,,0.00,WUHU216HW,2013-05-22 05:26:00,
2013-05-21 22:31:00,44.1,38.6,29.97,SSW,203,0.2,1.8,81,0.00,,,0.00,WUHU216HW,2013-05-22 05:31:00,
2013-05-21 22:36:00,43.6,38.1,29.98,SSW,203,0.9,1.8,81,0.00,,,0.00,WUHU216HW,2013-05-22 05:36:00,
2013-05-21 22:41:00,43.4,38.3,29.97,SSE,158,1.6,1.8,82,0.00,,,0.00,WUHU216HW,2013-05-22 05:41:00,
2013-05-21 22:46:00,43.2,38.1,29.97,SSE,158,1.1,3.1,82,0.00,,,0.00,WUHU216HW,2013-05-22 05:46:00,
2013-05-21 22:51:00,43.2,38.1,29.97,SSE,158,0.4,3.1,82,0.00,,,0.00,WUHU216HW,2013-05-22 05:51:00,
2013-05-21 22:56:00,42.8,38.0,29.97,SSE,158,1.1,2.2,83,0.00,,,0.00,WUHU216HW,2013-05-22 05:56:00,
2013-05-21 23:01:00,42.8,38.0,29.97,SSW,203,0.4,2.2,83,0.00,,,0.00,WUHU216HW,2013-05-22 06:01:00,
2013-05-21 23:06:00,42.8,38.4,29.97,SSE,158,0.4,1.8,84,0.00,,,0.00,WUHU216HW,2013-05-22 06:06:00,
2013-05-21 23:11:00,42.7,38.2,29.97,SSE,158,0.7,1.8,84,0.00,,,0.00,WUHU216HW,2013-05-22 06:11:00,
2013-05-21 23:16:00,42.7,38.2,29.97,SSE,158,0.4,0.9,84,0.00,,,0.00,WUHU216HW,2013-05-22 06:16:00,
2013-05-21 23:21:00,42.7,38.2,29.97,SE,135,0.9,1.8,84,0.00,,,0.00,WUHU216HW,2013-05-22 06:21:00,
2013-05-21 23:26:00,42.7,38.4,29.96,SE,135,1.1,1.8,85,0.00,,,0.00,WUHU216HW,2013-05-22 06:26:00,
2013-05-21 23:31:00,42.7,38.4,29.96,SSE,158,0.4,3.4,85,0.00,,,0.00,WUHU216HW,2013-05-22 06:31:00,
2013-05-21 23:36:00,42.8,38.6,29.96,SE,135,1.6,3.4,85,0.00,,,0.00,WUHU216HW,2013-05-22 06:36:00,
2013-05-21 23:41:00,42.7,38.4,29.96,SE,135,1.8,2.5,85,0.00,,,0.00,WUHU216HW,2013-05-22 06:41:00,
2013-05-21 23:46:00,42.7,38.4,29.96,SW,225,0.9,2.9,85,0.00,,,0.00,WUHU216HW,2013-05-22 06:46:00,
2013-05-21 23:51:00,42.7,38.4,29.96,SSE,158,1.8,2.9,85,0.00,,,0.00,WUHU216HW,2013-05-22 06:51:00,
2013-05-21 23:56:00,42.5,38.3,29.96,South,180,1.6,2.7,85,0.00,,,0.00,WUHU216HW,2013-05-22 06:56:00,